createdAt,value
2022-10-13T00:04:29.403Z,3.60
2022-10-13T00:09:31.063Z,3.58
2022-10-13T00:14:32.716Z,3.53
2022-10-13T00:19:34.427Z,3.49
2022-10-13T00:24:36.153Z,3.47
2022-10-13T00:29:38.019Z,3.42
2022-10-13T00:34:40.050Z,3.38
2022-10-13T00:39:41.699Z,3.35
2022-10-13T00:45:00.655Z,3.32
2022-10-13T00:50:03.932Z,3.30
2022-10-13T00:55:07.680Z,3.26
2022-10-13T01:00:10.196Z,3.22
2022-10-13T01:05:11.942Z,3.18
2022-10-13T01:10:16.220Z,3.16
2022-10-13T01:15:17.809Z,3.20
2022-10-13T01:21:07.068Z,3.26
2022-10-13T01:26:26.925Z,3.31
2022-10-13T01:31:40.549Z,3.31
2022-10-13T01:37:03.763Z,3.29
2022-10-13T01:42:13.302Z,3.24
2022-10-13T01:47:16.665Z,3.23
2022-10-13T01:52:22.148Z,3.17
2022-10-13T01:57:32.392Z,3.11
2022-10-13T02:02:47.758Z,3.06
2022-10-13T02:07:56.601Z,3.01
2022-10-13T02:13:04.776Z,2.95
2022-10-13T02:18:08.401Z,2.88
2022-10-13T02:23:16.557Z,2.81
2022-10-13T02:28:19.455Z,2.71
2022-10-13T02:33:21.303Z,2.60
2022-10-13T02:38:22.954Z,2.55
2022-10-13T02:43:24.813Z,2.54
2022-10-13T02:48:26.464Z,2.55
2022-10-13T02:53:28.216Z,2.55
2022-10-13T02:58:30.615Z,2.54
2022-10-13T03:03:32.450Z,2.52
2022-10-13T03:08:35.650Z,2.55
2022-10-13T03:13:37.687Z,2.55
2022-10-13T03:18:41.231Z,2.51
2022-10-13T03:23:42.942Z,2.48
2022-10-13T03:28:49.082Z,2.45
2022-10-13T03:33:51.703Z,2.43
2022-10-13T03:38:53.360Z,2.36
2022-10-13T03:43:55.403Z,2.29
2022-10-13T03:48:57.369Z,2.24
2022-10-13T03:53:59.097Z,2.18
2022-10-13T03:59:01.371Z,2.15
2022-10-13T04:04:03.358Z,2.11
2022-10-13T04:09:05.717Z,2.08
2022-10-13T04:14:07.521Z,2.07
2022-10-13T04:19:12.405Z,2.10
2022-10-13T04:24:14.866Z,2.09
2022-10-13T04:29:16.583Z,2.07
2022-10-13T04:34:18.426Z,2.07
2022-10-13T04:39:20.163Z,2.08
2022-10-13T04:44:23.957Z,2.07
2022-10-13T04:49:25.645Z,2.06
2022-10-13T04:54:27.456Z,2.05
2022-10-13T04:59:29.276Z,2.01
2022-10-13T05:04:30.958Z,1.99
2022-10-13T05:09:32.643Z,1.97
2022-10-13T05:14:35.042Z,1.95
2022-10-13T05:19:38.573Z,1.97
2022-10-13T05:24:41.048Z,1.99
2022-10-13T05:29:42.754Z,2.04
2022-10-13T05:34:44.461Z,2.13
2022-10-13T05:39:48.787Z,2.26
2022-10-13T05:44:51.128Z,2.32
2022-10-13T05:49:52.890Z,2.37
2022-10-13T05:54:58.465Z,2.42
2022-10-13T06:00:11.056Z,2.50
2022-10-13T06:05:19.655Z,2.65
2022-10-13T06:10:25.429Z,2.78
2022-10-13T06:15:28.359Z,2.88
2022-10-13T06:20:31.188Z,3.01
2022-10-13T06:25:32.875Z,3.14
2022-10-13T06:30:34.505Z,3.31
2022-10-13T06:35:36.503Z,3.52
2022-10-13T06:40:38.476Z,3.78
2022-10-13T06:45:40.227Z,4.04
2022-10-13T06:50:43.035Z,4.26
2022-10-13T06:55:48.005Z,4.51
2022-10-13T07:00:52.683Z,4.77
2022-10-13T07:05:54.522Z,5.00
2022-10-13T07:10:56.195Z,5.27
2022-10-13T07:15:57.872Z,5.52
2022-10-13T07:21:00.973Z,5.72
2022-10-13T07:26:07.988Z,5.93
2022-10-13T07:31:16.379Z,6.22
2022-10-13T07:36:19.442Z,6.48
2022-10-13T07:41:21.539Z,6.71
2022-10-13T07:46:23.871Z,6.95
2022-10-13T07:51:25.668Z,7.19
2022-10-13T07:56:28.521Z,7.43
2022-10-13T08:01:30.212Z,7.67
2022-10-13T08:06:31.929Z,7.94
2022-10-13T08:11:33.620Z,8.19
2022-10-13T08:16:35.448Z,8.43
2022-10-13T08:21:57.743Z,8.67
2022-10-13T08:27:00.233Z,8.82
2022-10-13T08:32:01.931Z,8.98
2022-10-13T08:37:04.595Z,9.19
2022-10-13T08:42:19.133Z,9.44
2022-10-13T08:47:27.187Z,9.72
2022-10-13T08:52:44.159Z,10.03
2022-10-13T08:57:45.931Z,10.32
2022-10-13T09:02:49.732Z,10.56
2022-10-13T09:07:54.827Z,10.76
2022-10-13T09:12:58.821Z,10.96
2022-10-13T09:18:13.073Z,11.19
2022-10-13T09:23:23.195Z,11.43
2022-10-13T09:28:27.538Z,11.64
2022-10-13T09:33:29.385Z,11.88
2022-10-13T09:38:31.275Z,12.08
2022-10-13T09:43:34.804Z,12.29
2022-10-13T09:48:37.162Z,12.52
2022-10-13T09:53:40.976Z,12.74
2022-10-13T09:58:52.024Z,12.94
2022-10-13T10:03:55.428Z,13.15
2022-10-13T10:09:27.545Z,13.38
2022-10-13T10:14:36.385Z,13.61
2022-10-13T10:19:53.453Z,13.80
2022-10-13T10:25:23.097Z,14.01
2022-10-13T10:30:25.645Z,14.18
2022-10-13T10:35:44.536Z,14.33
2022-10-13T10:41:04.439Z,14.53
2022-10-13T10:46:11.891Z,14.71
2022-10-13T10:51:14.672Z,14.90
2022-10-13T10:56:31.628Z,15.05
2022-10-13T11:01:46.360Z,15.21
2022-10-13T11:06:48.200Z,15.30
2022-10-13T11:11:49.925Z,15.42
2022-10-13T11:17:07.027Z,15.55
2022-10-13T11:22:14.221Z,15.56
2022-10-13T11:27:15.864Z,15.49
2022-10-13T11:32:31.139Z,15.64
2022-10-13T11:38:06.696Z,15.82
2022-10-13T11:43:09.614Z,15.95
2022-10-13T11:48:51.311Z,16.06
2022-10-13T11:54:04.627Z,16.26
2022-10-13T11:59:34.799Z,16.41
2022-10-13T12:04:38.405Z,16.72
2022-10-13T12:09:54.958Z,16.94
2022-10-13T12:14:59.880Z,17.05
2022-10-13T12:20:21.178Z,16.97
2022-10-13T12:25:26.987Z,16.92
2022-10-13T12:30:38.077Z,16.90
2022-10-13T12:35:39.714Z,16.84
2022-10-13T12:40:41.494Z,16.84
2022-10-13T12:45:43.686Z,16.88
2022-10-13T12:50:45.493Z,16.90
2022-10-13T12:56:02.058Z,16.97
2022-10-13T13:01:21.228Z,17.00
2022-10-13T13:06:32.580Z,17.02
2022-10-13T13:11:37.800Z,16.98
2022-10-13T13:16:39.466Z,16.94
2022-10-13T13:21:41.216Z,16.87
2022-10-13T13:26:46.199Z,16.86
2022-10-13T13:31:48.062Z,16.87
2022-10-13T13:36:50.604Z,16.89
2022-10-13T13:41:52.294Z,16.90
2022-10-13T13:46:56.842Z,16.88
2022-10-13T13:51:58.480Z,16.84
2022-10-13T13:57:00.183Z,16.72
2022-10-13T14:02:02.939Z,16.60
2022-10-13T14:07:05.274Z,16.50
2022-10-13T14:12:07.063Z,16.42
2022-10-13T14:17:08.761Z,16.35
2022-10-13T14:22:10.454Z,16.33
2022-10-13T14:27:12.270Z,16.31
2022-10-13T14:32:14.154Z,16.24
2022-10-13T14:37:15.803Z,16.13
2022-10-13T14:42:17.432Z,16.04
2022-10-13T14:47:19.529Z,15.97
2022-10-13T14:52:21.536Z,15.88
2022-10-13T14:57:23.415Z,15.77
2022-10-13T15:02:25.770Z,15.63
2022-10-13T15:07:28.344Z,15.50
2022-10-13T15:12:30.051Z,15.36
2022-10-13T15:17:33.378Z,15.23
2022-10-13T15:22:35.052Z,15.08
2022-10-13T15:27:41.895Z,14.91
2022-10-13T15:32:43.982Z,14.73
2022-10-13T15:37:45.702Z,14.54
2022-10-13T15:42:47.465Z,14.34
2022-10-13T15:47:51.828Z,14.14
2022-10-13T15:52:53.586Z,13.94
2022-10-13T15:57:55.349Z,13.75
2022-10-13T16:02:58.183Z,13.54
2022-10-13T16:07:59.871Z,13.33
2022-10-13T16:13:01.513Z,13.13
2022-10-13T16:18:03.555Z,12.93
2022-10-13T16:23:05.613Z,12.74
2022-10-13T16:28:07.240Z,12.57
2022-10-13T16:33:09.011Z,12.39
2022-10-13T16:38:11.344Z,12.22
2022-10-13T16:43:13.625Z,12.05
2022-10-13T16:48:17.947Z,11.90
2022-10-13T16:53:19.744Z,11.76
2022-10-13T16:58:21.451Z,11.63
2022-10-13T17:03:23.138Z,11.51
2022-10-13T17:08:26.683Z,11.41
2022-10-13T17:13:28.582Z,11.38
2022-10-13T17:18:30.323Z,11.36
2022-10-13T17:23:32.788Z,11.34
2022-10-13T17:28:36.337Z,11.33
2022-10-13T17:33:39.783Z,11.30
2022-10-13T17:38:42.781Z,11.25
2022-10-13T17:43:44.664Z,11.20
2022-10-13T17:48:46.393Z,11.18
2022-10-13T17:53:49.438Z,11.16
2022-10-13T17:58:51.603Z,11.18
2022-10-13T18:03:56.650Z,11.23
2022-10-13T18:09:05.621Z,11.30
2022-10-13T18:14:08.952Z,11.40
2022-10-13T18:19:13.431Z,11.51
2022-10-13T18:24:15.417Z,11.60
2022-10-13T18:29:17.305Z,11.66
2022-10-13T18:34:19.648Z,11.71
2022-10-13T18:39:25.727Z,11.72
2022-10-13T18:44:27.627Z,11.68
2022-10-13T18:49:33.286Z,11.62
2022-10-13T18:54:35.019Z,11.58
2022-10-13T18:59:38.795Z,11.56
2022-10-13T19:04:40.846Z,11.49
2022-10-13T19:09:42.587Z,11.41
2022-10-13T19:14:44.668Z,11.36
2022-10-13T19:19:47.447Z,11.29
2022-10-13T19:24:49.144Z,11.19
2022-10-13T19:29:55.591Z,11.06
2022-10-13T19:34:57.298Z,10.93
2022-10-13T19:39:59.035Z,10.79
2022-10-13T19:45:04.238Z,10.65
2022-10-13T19:50:07.161Z,10.51
2022-10-13T19:55:09.391Z,10.38
2022-10-13T20:00:12.103Z,10.26
2022-10-13T20:05:14.388Z,10.17
2022-10-13T20:10:16.107Z,10.08
2022-10-13T20:15:17.896Z,10.03
2022-10-13T20:20:22.373Z,9.99
2022-10-13T20:25:24.371Z,9.93
2022-10-13T20:30:26.557Z,9.91
2022-10-13T20:35:28.235Z,9.88
2022-10-13T20:40:29.933Z,9.85
2022-10-13T20:45:31.712Z,9.84
2022-10-13T20:50:33.396Z,9.80
2022-10-13T20:55:40.852Z,9.70
2022-10-13T21:00:43.778Z,9.58
2022-10-13T21:05:46.977Z,9.52
2022-10-13T21:10:50.401Z,9.50
2022-10-13T21:15:54.154Z,9.51
2022-10-13T21:21:02.984Z,9.55
2022-10-13T21:26:07.107Z,9.60
2022-10-13T21:31:11.239Z,9.62
2022-10-13T21:36:14.455Z,9.58
2022-10-13T21:41:16.678Z,9.53
2022-10-13T21:46:26.964Z,9.49
2022-10-13T21:51:30.500Z,9.47
2022-10-13T21:56:33.518Z,9.51
2022-10-13T22:01:35.863Z,9.55
2022-10-13T22:06:44.299Z,9.60
2022-10-13T22:11:46.036Z,9.64
2022-10-13T22:16:51.358Z,9.66
2022-10-13T22:21:53.148Z,9.69
2022-10-13T22:26:55.569Z,9.70
2022-10-13T22:31:58.211Z,9.72
2022-10-13T22:36:59.909Z,9.74
2022-10-13T22:42:02.825Z,9.75
2022-10-13T22:47:05.948Z,9.74
2022-10-13T22:52:07.664Z,9.71
2022-10-13T22:57:09.389Z,9.67
2022-10-13T23:02:11.065Z,9.61
2022-10-13T23:07:13.665Z,9.52
2022-10-13T23:12:18.384Z,9.40
2022-10-13T23:17:20.545Z,9.28
2022-10-13T23:22:22.524Z,9.13
2022-10-13T23:27:24.443Z,9.01
2022-10-13T23:32:26.702Z,8.93
2022-10-13T23:37:28.473Z,8.87
2022-10-13T23:42:30.253Z,8.83
2022-10-13T23:47:38.408Z,8.83
2022-10-13T23:52:40.166Z,8.86
2022-10-13T23:57:41.871Z,8.88
